sensor_id;sensor_type;location;lat;lon;timestamp;P1;durP1;ratioP1;P2;durP2;ratioP2
73697;SDS011;62004;42.566;23.164;2022-12-10T00:00:18;6.47;;;3.58;;
73697;SDS011;62004;42.566;23.164;2022-12-10T00:02:44;7.38;;;3.90;;
73697;SDS011;62004;42.566;23.164;2022-12-10T00:05:09;10.60;;;4.28;;
73697;SDS011;62004;42.566;23.164;2022-12-10T00:07:34;11.90;;;5.00;;
73697;SDS011;62004;42.566;23.164;2022-12-10T00:10:00;11.77;;;3.92;;
73697;SDS011;62004;42.566;23.164;2022-12-10T00:12:25;13.32;;;4.40;;
73697;SDS011;62004;42.566;23.164;2022-12-10T00:14:50;9.98;;;3.67;;
73697;SDS011;62004;42.566;23.164;2022-12-10T00:17:16;6.95;;;4.05;;
73697;SDS011;62004;42.566;23.164;2022-12-10T00:19:41;7.47;;;3.67;;
73697;SDS011;62004;42.566;23.164;2022-12-10T00:22:06;8.93;;;3.95;;
73697;SDS011;62004;42.566;23.164;2022-12-10T00:24:32;8.95;;;3.47;;
73697;SDS011;62004;42.566;23.164;2022-12-10T00:26:57;11.35;;;4.10;;
73697;SDS011;62004;42.566;23.164;2022-12-10T00:29:23;8.27;;;3.78;;
73697;SDS011;62004;42.566;23.164;2022-12-10T00:31:48;12.85;;;4.60;;
73697;SDS011;62004;42.566;23.164;2022-12-10T00:34:13;13.90;;;5.93;;
73697;SDS011;62004;42.566;23.164;2022-12-10T00:36:46;12.50;;;5.22;;
73697;SDS011;62004;42.566;23.164;2022-12-10T00:39:13;11.23;;;4.32;;
73697;SDS011;62004;42.566;23.164;2022-12-10T00:41:43;15.52;;;5.72;;
73697;SDS011;62004;42.566;23.164;2022-12-10T00:44:09;9.52;;;3.70;;
73697;SDS011;62004;42.566;23.164;2022-12-10T00:46:34;10.80;;;3.92;;
73697;SDS011;62004;42.566;23.164;2022-12-10T00:48:59;15.10;;;3.95;;
73697;SDS011;62004;42.566;23.164;2022-12-10T00:51:25;14.10;;;3.97;;
73697;SDS011;62004;42.566;23.164;2022-12-10T00:53:52;10.73;;;3.63;;
73697;SDS011;62004;42.566;23.164;2022-12-10T00:56:20;11.25;;;4.53;;
73697;SDS011;62004;42.566;23.164;2022-12-10T00:58:50;11.18;;;4.72;;
73697;SDS011;62004;42.566;23.164;2022-12-10T01:04:00;7.60;;;3.72;;
73697;SDS011;62004;42.566;23.164;2022-12-10T01:08:55;12.27;;;4.70;;
73697;SDS011;62004;42.566;23.164;2022-12-10T01:11:21;15.52;;;5.50;;
73697;SDS011;62004;42.566;23.164;2022-12-10T01:13:47;13.40;;;5.03;;
73697;SDS011;62004;42.566;23.164;2022-12-10T01:16:14;10.45;;;4.55;;
73697;SDS011;62004;42.566;23.164;2022-12-10T01:18:41;16.25;;;4.22;;
73697;SDS011;62004;42.566;23.164;2022-12-10T01:21:09;12.32;;;4.28;;
73697;SDS011;62004;42.566;23.164;2022-12-10T01:23:38;12.25;;;4.43;;
73697;SDS011;62004;42.566;23.164;2022-12-10T01:26:06;9.35;;;3.65;;
73697;SDS011;62004;42.566;23.164;2022-12-10T01:28:32;17.35;;;4.38;;
73697;SDS011;62004;42.566;23.164;2022-12-10T01:31:00;8.35;;;3.65;;
73697;SDS011;62004;42.566;23.164;2022-12-10T01:33:27;11.93;;;4.47;;
73697;SDS011;62004;42.566;23.164;2022-12-10T01:35:53;7.20;;;3.38;;
73697;SDS011;62004;42.566;23.164;2022-12-10T01:38:18;7.43;;;3.65;;
73697;SDS011;62004;42.566;23.164;2022-12-10T01:40:43;8.90;;;3.83;;
73697;SDS011;62004;42.566;23.164;2022-12-10T01:43:12;11.23;;;2.95;;
73697;SDS011;62004;42.566;23.164;2022-12-10T01:45:39;9.90;;;3.70;;
73697;SDS011;62004;42.566;23.164;2022-12-10T01:48:04;8.43;;;3.63;;
73697;SDS011;62004;42.566;23.164;2022-12-10T01:50:30;11.07;;;3.85;;
73697;SDS011;62004;42.566;23.164;2022-12-10T01:52:55;11.48;;;2.90;;
73697;SDS011;62004;42.566;23.164;2022-12-10T01:58:16;7.63;;;3.30;;
73697;SDS011;62004;42.566;23.164;2022-12-10T02:00:48;10.73;;;4.15;;
73697;SDS011;62004;42.566;23.164;2022-12-10T02:03:27;7.47;;;3.70;;
73697;SDS011;62004;42.566;23.164;2022-12-10T02:08:50;10.27;;;3.65;;
73697;SDS011;62004;42.566;23.164;2022-12-10T02:11:22;7.65;;;3.45;;
73697;SDS011;62004;42.566;23.164;2022-12-10T02:14:21;11.80;;;3.88;;
73697;SDS011;62004;42.566;23.164;2022-12-10T02:17:00;7.22;;;3.60;;
73697;SDS011;62004;42.566;23.164;2022-12-10T02:22:05;4.88;;;3.15;;
73697;SDS011;62004;42.566;23.164;2022-12-10T02:24:33;8.85;;;4.20;;
73697;SDS011;62004;42.566;23.164;2022-12-10T02:29:43;9.23;;;3.95;;
73697;SDS011;62004;42.566;23.164;2022-12-10T02:32:12;6.15;;;3.70;;
73697;SDS011;62004;42.566;23.164;2022-12-10T02:34:41;7.95;;;3.47;;
73697;SDS011;62004;42.566;23.164;2022-12-10T02:37:19;10.20;;;3.70;;
73697;SDS011;62004;42.566;23.164;2022-12-10T02:39:48;8.77;;;4.13;;
73697;SDS011;62004;42.566;23.164;2022-12-10T02:42:15;9.95;;;3.90;;
73697;SDS011;62004;42.566;23.164;2022-12-10T02:44:42;13.50;;;3.58;;
73697;SDS011;62004;42.566;23.164;2022-12-10T02:47:08;9.90;;;3.92;;
73697;SDS011;62004;42.566;23.164;2022-12-10T02:49:34;14.38;;;4.85;;
73697;SDS011;62004;42.566;23.164;2022-12-10T02:52:08;14.43;;;5.30;;
73697;SDS011;62004;42.566;23.164;2022-12-10T02:54:47;13.30;;;5.50;;
73697;SDS011;62004;42.566;23.164;2022-12-10T03:02:43;10.07;;;5.28;;
73697;SDS011;62004;42.566;23.164;2022-12-10T03:08:09;12.93;;;4.65;;
73697;SDS011;62004;42.566;23.164;2022-12-10T03:10:50;12.70;;;4.65;;
73697;SDS011;62004;42.566;23.164;2022-12-10T03:13:21;13.60;;;4.72;;
73697;SDS011;62004;42.566;23.164;2022-12-10T03:15:48;7.50;;;3.33;;
73697;SDS011;62004;42.566;23.164;2022-12-10T03:18:16;10.27;;;4.53;;
73697;SDS011;62004;42.566;23.164;2022-12-10T03:20:44;10.82;;;4.55;;
73697;SDS011;62004;42.566;23.164;2022-12-10T03:23:12;9.30;;;4.25;;
73697;SDS011;62004;42.566;23.164;2022-12-10T03:25:41;11.70;;;3.70;;
73697;SDS011;62004;42.566;23.164;2022-12-10T03:28:07;6.50;;;2.95;;
73697;SDS011;62004;42.566;23.164;2022-12-10T03:30:32;10.48;;;3.30;;
73697;SDS011;62004;42.566;23.164;2022-12-10T03:32:59;7.75;;;4.13;;
73697;SDS011;62004;42.566;23.164;2022-12-10T03:35:25;6.18;;;2.35;;
73697;SDS011;62004;42.566;23.164;2022-12-10T03:37:50;4.60;;;2.65;;
73697;SDS011;62004;42.566;23.164;2022-12-10T03:40:17;6.97;;;3.25;;
73697;SDS011;62004;42.566;23.164;2022-12-10T03:45:11;5.68;;;2.70;;
73697;SDS011;62004;42.566;23.164;2022-12-10T03:47:36;5.32;;;2.40;;
73697;SDS011;62004;42.566;23.164;2022-12-10T03:50:02;5.60;;;2.45;;
73697;SDS011;62004;42.566;23.164;2022-12-10T03:52:28;9.75;;;3.08;;
73697;SDS011;62004;42.566;23.164;2022-12-10T03:54:53;8.80;;;3.30;;
73697;SDS011;62004;42.566;23.164;2022-12-10T03:57:18;9.82;;;3.08;;
73697;SDS011;62004;42.566;23.164;2022-12-10T03:59:44;5.97;;;2.72;;
73697;SDS011;62004;42.566;23.164;2022-12-10T04:02:09;6.80;;;2.65;;
73697;SDS011;62004;42.566;23.164;2022-12-10T04:04:35;7.38;;;2.80;;
73697;SDS011;62004;42.566;23.164;2022-12-10T04:07:01;2.70;;;2.00;;
73697;SDS011;62004;42.566;23.164;2022-12-10T04:09:26;9.45;;;3.00;;
73697;SDS011;62004;42.566;23.164;2022-12-10T04:11:54;7.40;;;2.90;;
73697;SDS011;62004;42.566;23.164;2022-12-10T04:14:20;7.25;;;2.63;;
73697;SDS011;62004;42.566;23.164;2022-12-10T04:17:04;6.93;;;2.42;;
73697;SDS011;62004;42.566;23.164;2022-12-10T04:19:30;4.30;;;2.83;;
73697;SDS011;62004;42.566;23.164;2022-12-10T04:21:55;7.15;;;2.90;;
73697;SDS011;62004;42.566;23.164;2022-12-10T04:24:39;8.15;;;2.67;;
73697;SDS011;62004;42.566;23.164;2022-12-10T04:29:49;4.30;;;1.98;;
73697;SDS011;62004;42.566;23.164;2022-12-10T04:32:15;7.28;;;2.60;;
73697;SDS011;62004;42.566;23.164;2022-12-10T04:34:41;5.90;;;2.35;;
73697;SDS011;62004;42.566;23.164;2022-12-10T04:37:06;4.72;;;2.50;;
73697;SDS011;62004;42.566;23.164;2022-12-10T04:39:32;4.18;;;2.35;;
73697;SDS011;62004;42.566;23.164;2022-12-10T04:41:57;8.82;;;3.00;;
73697;SDS011;62004;42.566;23.164;2022-12-10T04:44:24;5.25;;;2.53;;
73697;SDS011;62004;42.566;23.164;2022-12-10T04:46:49;6.90;;;3.13;;
73697;SDS011;62004;42.566;23.164;2022-12-10T04:49:15;5.60;;;2.33;;
73697;SDS011;62004;42.566;23.164;2022-12-10T04:51:41;5.43;;;2.20;;
73697;SDS011;62004;42.566;23.164;2022-12-10T04:54:07;5.97;;;2.38;;
73697;SDS011;62004;42.566;23.164;2022-12-10T04:56:33;4.97;;;2.28;;
73697;SDS011;62004;42.566;23.164;2022-12-10T04:58:59;3.92;;;2.00;;
73697;SDS011;62004;42.566;23.164;2022-12-10T05:01:25;7.00;;;2.00;;
73697;SDS011;62004;42.566;23.164;2022-12-10T05:03:51;5.13;;;2.28;;
73697;SDS011;62004;42.566;23.164;2022-12-10T05:06:17;7.43;;;1.63;;
73697;SDS011;62004;42.566;23.164;2022-12-10T05:08:44;5.07;;;1.48;;
73697;SDS011;62004;42.566;23.164;2022-12-10T05:11:11;4.22;;;1.48;;
73697;SDS011;62004;42.566;23.164;2022-12-10T05:13:38;3.20;;;1.55;;
73697;SDS011;62004;42.566;23.164;2022-12-10T05:16:04;2.03;;;1.48;;
73697;SDS011;62004;42.566;23.164;2022-12-10T05:18:31;5.35;;;1.48;;
73697;SDS011;62004;42.566;23.164;2022-12-10T05:21:00;3.30;;;1.95;;
73697;SDS011;62004;42.566;23.164;2022-12-10T05:23:26;4.68;;;1.40;;
73697;SDS011;62004;42.566;23.164;2022-12-10T05:26:27;2.40;;;1.13;;
73697;SDS011;62004;42.566;23.164;2022-12-10T05:28:56;3.22;;;1.77;;
73697;SDS011;62004;42.566;23.164;2022-12-10T05:31:23;2.35;;;1.25;;
73697;SDS011;62004;42.566;23.164;2022-12-10T05:33:50;5.70;;;1.20;;
73697;SDS011;62004;42.566;23.164;2022-12-10T05:36:16;3.90;;;1.23;;
73697;SDS011;62004;42.566;23.164;2022-12-10T05:38:43;3.33;;;0.90;;
73697;SDS011;62004;42.566;23.164;2022-12-10T05:41:19;2.45;;;1.30;;
73697;SDS011;62004;42.566;23.164;2022-12-10T05:43:46;2.53;;;0.80;;
73697;SDS011;62004;42.566;23.164;2022-12-10T05:46:13;3.72;;;1.38;;
73697;SDS011;62004;42.566;23.164;2022-12-10T05:48:40;2.55;;;1.10;;
73697;SDS011;62004;42.566;23.164;2022-12-10T05:51:12;2.47;;;1.50;;
73697;SDS011;62004;42.566;23.164;2022-12-10T05:53:39;3.30;;;1.55;;
73697;SDS011;62004;42.566;23.164;2022-12-10T05:56:06;3.50;;;0.95;;
73697;SDS011;62004;42.566;23.164;2022-12-10T05:58:34;2.80;;;1.30;;
73697;SDS011;62004;42.566;23.164;2022-12-10T06:01:00;5.18;;;1.30;;
73697;SDS011;62004;42.566;23.164;2022-12-10T06:03:31;3.90;;;2.00;;
73697;SDS011;62004;42.566;23.164;2022-12-10T06:05:56;3.13;;;1.48;;
73697;SDS011;62004;42.566;23.164;2022-12-10T06:08:22;3.13;;;1.20;;
73697;SDS011;62004;42.566;23.164;2022-12-10T06:10:47;3.90;;;2.03;;
73697;SDS011;62004;42.566;23.164;2022-12-10T06:13:13;7.35;;;1.63;;
73697;SDS011;62004;42.566;23.164;2022-12-10T06:15:39;2.08;;;1.33;;
73697;SDS011;62004;42.566;23.164;2022-12-10T06:18:05;4.13;;;1.75;;
73697;SDS011;62004;42.566;23.164;2022-12-10T06:20:30;4.82;;;1.27;;
73697;SDS011;62004;42.566;23.164;2022-12-10T06:22:56;5.55;;;2.35;;
73697;SDS011;62004;42.566;23.164;2022-12-10T06:25:21;2.38;;;1.50;;
73697;SDS011;62004;42.566;23.164;2022-12-10T06:27:46;3.88;;;1.67;;
73697;SDS011;62004;42.566;23.164;2022-12-10T06:30:12;4.25;;;1.35;;
73697;SDS011;62004;42.566;23.164;2022-12-10T06:32:37;3.45;;;1.30;;
73697;SDS011;62004;42.566;23.164;2022-12-10T06:35:03;6.35;;;1.55;;
73697;SDS011;62004;42.566;23.164;2022-12-10T06:37:29;5.93;;;1.65;;
73697;SDS011;62004;42.566;23.164;2022-12-10T06:39:54;3.17;;;1.15;;
73697;SDS011;62004;42.566;23.164;2022-12-10T06:42:20;5.50;;;1.67;;
73697;SDS011;62004;42.566;23.164;2022-12-10T06:44:46;4.07;;;1.27;;
73697;SDS011;62004;42.566;23.164;2022-12-10T06:47:11;2.30;;;1.05;;
73697;SDS011;62004;42.566;23.164;2022-12-10T06:49:37;6.05;;;2.40;;
73697;SDS011;62004;42.566;23.164;2022-12-10T06:52:03;5.03;;;1.65;;
73697;SDS011;62004;42.566;23.164;2022-12-10T06:54:28;3.47;;;1.30;;
73697;SDS011;62004;42.566;23.164;2022-12-10T06:56:54;5.03;;;1.40;;
73697;SDS011;62004;42.566;23.164;2022-12-10T06:59:19;4.10;;;1.20;;
73697;SDS011;62004;42.566;23.164;2022-12-10T07:01:45;5.82;;;1.58;;
73697;SDS011;62004;42.566;23.164;2022-12-10T07:04:11;6.40;;;1.42;;
73697;SDS011;62004;42.566;23.164;2022-12-10T07:06:36;4.32;;;1.83;;
73697;SDS011;62004;42.566;23.164;2022-12-10T07:09:01;3.33;;;1.85;;
73697;SDS011;62004;42.566;23.164;2022-12-10T07:11:27;3.17;;;1.88;;
73697;SDS011;62004;42.566;23.164;2022-12-10T07:13:52;5.30;;;1.48;;
73697;SDS011;62004;42.566;23.164;2022-12-10T07:16:21;7.55;;;1.73;;
73697;SDS011;62004;42.566;23.164;2022-12-10T07:18:48;4.47;;;1.17;;
73697;SDS011;62004;42.566;23.164;2022-12-10T07:21:19;4.10;;;2.38;;
73697;SDS011;62004;42.566;23.164;2022-12-10T07:23:52;5.50;;;2.40;;
73697;SDS011;62004;42.566;23.164;2022-12-10T07:26:19;4.97;;;1.60;;
73697;SDS011;62004;42.566;23.164;2022-12-10T07:28:44;8.70;;;2.00;;
73697;SDS011;62004;42.566;23.164;2022-12-10T07:31:09;5.72;;;1.50;;
73697;SDS011;62004;42.566;23.164;2022-12-10T07:33:35;6.95;;;1.58;;
73697;SDS011;62004;42.566;23.164;2022-12-10T07:36:05;5.35;;;1.58;;
73697;SDS011;62004;42.566;23.164;2022-12-10T07:38:31;5.97;;;2.45;;
73697;SDS011;62004;42.566;23.164;2022-12-10T07:40:56;4.72;;;1.98;;
73697;SDS011;62004;42.566;23.164;2022-12-10T07:43:22;4.50;;;1.73;;
73697;SDS011;62004;42.566;23.164;2022-12-10T07:45:47;3.67;;;1.85;;
73697;SDS011;62004;42.566;23.164;2022-12-10T07:48:12;5.53;;;1.65;;
73697;SDS011;62004;42.566;23.164;2022-12-10T07:50:39;8.40;;;2.50;;
73697;SDS011;62004;42.566;23.164;2022-12-10T07:53:05;5.60;;;2.33;;
73697;SDS011;62004;42.566;23.164;2022-12-10T07:55:31;5.80;;;1.60;;
73697;SDS011;62004;42.566;23.164;2022-12-10T07:57:56;5.65;;;2.15;;
73697;SDS011;62004;42.566;23.164;2022-12-10T08:00:22;6.00;;;2.05;;
73697;SDS011;62004;42.566;23.164;2022-12-10T08:02:47;5.35;;;1.75;;
73697;SDS011;62004;42.566;23.164;2022-12-10T08:05:12;7.78;;;2.00;;
73697;SDS011;62004;42.566;23.164;2022-12-10T08:07:38;6.15;;;1.80;;
73697;SDS011;62004;42.566;23.164;2022-12-10T08:10:03;4.95;;;1.95;;
73697;SDS011;62004;42.566;23.164;2022-12-10T08:12:29;3.72;;;1.85;;
73697;SDS011;62004;42.566;23.164;2022-12-10T08:14:55;8.85;;;2.22;;
73697;SDS011;62004;42.566;23.164;2022-12-10T08:17:20;6.30;;;1.80;;
73697;SDS011;62004;42.566;23.164;2022-12-10T08:19:45;4.70;;;1.90;;
73697;SDS011;62004;42.566;23.164;2022-12-10T08:22:11;1.90;;;1.42;;
73697;SDS011;62004;42.566;23.164;2022-12-10T08:24:36;5.75;;;1.50;;
73697;SDS011;62004;42.566;23.164;2022-12-10T08:27:02;5.60;;;1.98;;
73697;SDS011;62004;42.566;23.164;2022-12-10T08:29:27;4.97;;;2.33;;
73697;SDS011;62004;42.566;23.164;2022-12-10T08:31:52;4.85;;;2.00;;
73697;SDS011;62004;42.566;23.164;2022-12-10T08:34:18;3.92;;;1.77;;
73697;SDS011;62004;42.566;23.164;2022-12-10T08:36:44;2.95;;;1.60;;
73697;SDS011;62004;42.566;23.164;2022-12-10T08:39:10;3.95;;;1.88;;
73697;SDS011;62004;42.566;23.164;2022-12-10T08:41:40;11.90;;;1.65;;
73697;SDS011;62004;42.566;23.164;2022-12-10T08:44:06;5.53;;;1.38;;
73697;SDS011;62004;42.566;23.164;2022-12-10T08:46:31;2.35;;;1.25;;
73697;SDS011;62004;42.566;23.164;2022-12-10T08:48:57;4.03;;;1.25;;
73697;SDS011;62004;42.566;23.164;2022-12-10T08:51:22;4.45;;;1.77;;
73697;SDS011;62004;42.566;23.164;2022-12-10T08:53:48;4.90;;;1.17;;
73697;SDS011;62004;42.566;23.164;2022-12-10T08:56:13;2.50;;;1.38;;
73697;SDS011;62004;42.566;23.164;2022-12-10T08:58:39;2.55;;;1.35;;
73697;SDS011;62004;42.566;23.164;2022-12-10T09:01:09;5.53;;;1.50;;
73697;SDS011;62004;42.566;23.164;2022-12-10T09:03:36;4.45;;;1.30;;
73697;SDS011;62004;42.566;23.164;2022-12-10T09:06:06;5.03;;;1.63;;
73697;SDS011;62004;42.566;23.164;2022-12-10T09:08:33;5.85;;;2.92;;
73697;SDS011;62004;42.566;23.164;2022-12-10T09:11:03;6.43;;;1.83;;
73697;SDS011;62004;42.566;23.164;2022-12-10T09:13:39;2.72;;;1.77;;
73697;SDS011;62004;42.566;23.164;2022-12-10T09:16:04;2.70;;;1.30;;
73697;SDS011;62004;42.566;23.164;2022-12-10T09:18:30;4.10;;;1.70;;
73697;SDS011;62004;42.566;23.164;2022-12-10T09:20:56;2.47;;;1.00;;
73697;SDS011;62004;42.566;23.164;2022-12-10T09:23:21;7.70;;;2.70;;
73697;SDS011;62004;42.566;23.164;2022-12-10T09:25:47;2.83;;;1.20;;
73697;SDS011;62004;42.566;23.164;2022-12-10T09:28:12;2.85;;;1.92;;
73697;SDS011;62004;42.566;23.164;2022-12-10T09:30:38;3.25;;;1.55;;
73697;SDS011;62004;42.566;23.164;2022-12-10T09:33:03;2.65;;;1.13;;
73697;SDS011;62004;42.566;23.164;2022-12-10T09:35:29;5.53;;;1.33;;
73697;SDS011;62004;42.566;23.164;2022-12-10T09:37:54;2.58;;;1.00;;
73697;SDS011;62004;42.566;23.164;2022-12-10T09:40:32;4.03;;;1.20;;
73697;SDS011;62004;42.566;23.164;2022-12-10T09:43:09;3.13;;;1.25;;
73697;SDS011;62004;42.566;23.164;2022-12-10T09:45:43;2.95;;;1.17;;
73697;SDS011;62004;42.566;23.164;2022-12-10T09:50:36;3.25;;;1.55;;
73697;SDS011;62004;42.566;23.164;2022-12-10T09:53:12;2.85;;;1.10;;
73697;SDS011;62004;42.566;23.164;2022-12-10T09:55:41;4.80;;;1.10;;
73697;SDS011;62004;42.566;23.164;2022-12-10T09:58:09;3.67;;;1.30;;
73697;SDS011;62004;42.566;23.164;2022-12-10T10:00:39;3.47;;;1.23;;
73697;SDS011;62004;42.566;23.164;2022-12-10T10:03:05;4.50;;;1.88;;
73697;SDS011;62004;42.566;23.164;2022-12-10T10:05:41;14.63;;;1.00;;
73697;SDS011;62004;42.566;23.164;2022-12-10T10:08:13;3.60;;;1.00;;
73697;SDS011;62004;42.566;23.164;2022-12-10T10:10:52;6.38;;;1.70;;
73697;SDS011;62004;42.566;23.164;2022-12-10T10:15:46;1.98;;;0.88;;
73697;SDS011;62004;42.566;23.164;2022-12-10T10:18:17;2.08;;;1.00;;
73697;SDS011;62004;42.566;23.164;2022-12-10T10:20:47;1.17;;;0.88;;
73697;SDS011;62004;42.566;23.164;2022-12-10T10:23:14;2.35;;;1.05;;
73697;SDS011;62004;42.566;23.164;2022-12-10T10:25:40;3.83;;;1.05;;
73697;SDS011;62004;42.566;23.164;2022-12-10T10:28:09;3.35;;;1.60;;
73697;SDS011;62004;42.566;23.164;2022-12-10T10:30:37;4.88;;;1.45;;
73697;SDS011;62004;42.566;23.164;2022-12-10T10:33:07;3.83;;;1.02;;
73697;SDS011;62004;42.566;23.164;2022-12-10T10:35:41;3.33;;;0.82;;
73697;SDS011;62004;42.566;23.164;2022-12-10T10:38:15;2.75;;;1.73;;
73697;SDS011;62004;42.566;23.164;2022-12-10T10:40:43;4.40;;;1.73;;
73697;SDS011;62004;42.566;23.164;2022-12-10T10:43:22;3.95;;;1.48;;
73697;SDS011;62004;42.566;23.164;2022-12-10T10:48:17;2.40;;;1.50;;
73697;SDS011;62004;42.566;23.164;2022-12-10T10:50:45;2.78;;;1.40;;
73697;SDS011;62004;42.566;23.164;2022-12-10T10:56:27;5.47;;;1.35;;
73697;SDS011;62004;42.566;23.164;2022-12-10T10:59:19;3.33;;;1.35;;
73697;SDS011;62004;42.566;23.164;2022-12-10T11:04:49;4.38;;;1.60;;
73697;SDS011;62004;42.566;23.164;2022-12-10T11:10:02;2.05;;;1.00;;
73697;SDS011;62004;42.566;23.164;2022-12-10T11:12:39;4.75;;;2.10;;
73697;SDS011;62004;42.566;23.164;2022-12-10T11:17:50;4.00;;;1.75;;
73697;SDS011;62004;42.566;23.164;2022-12-10T11:22:51;3.88;;;2.17;;
73697;SDS011;62004;42.566;23.164;2022-12-10T11:25:26;4.38;;;2.00;;
73697;SDS011;62004;42.566;23.164;2022-12-10T11:28:02;5.05;;;2.78;;
73697;SDS011;62004;42.566;23.164;2022-12-10T11:30:31;5.47;;;1.30;;
73697;SDS011;62004;42.566;23.164;2022-12-10T11:33:05;7.32;;;2.35;;
73697;SDS011;62004;42.566;23.164;2022-12-10T11:35:52;6.25;;;1.90;;
73697;SDS011;62004;42.566;23.164;2022-12-10T11:54:57;4.82;;;2.28;;
73697;SDS011;62004;42.566;23.164;2022-12-10T11:58:16;6.03;;;2.05;;
73697;SDS011;62004;42.566;23.164;2022-12-10T12:09:15;6.85;;;1.60;;
73697;SDS011;62004;42.566;23.164;2022-12-10T12:11:51;5.93;;;3.15;;
73697;SDS011;62004;42.566;23.164;2022-12-10T12:14:46;7.93;;;2.00;;
73697;SDS011;62004;42.566;23.164;2022-12-10T12:19:43;4.47;;;1.70;;
73697;SDS011;62004;42.566;23.164;2022-12-10T12:22:16;5.43;;;2.28;;
73697;SDS011;62004;42.566;23.164;2022-12-10T12:24:52;9.73;;;2.67;;
73697;SDS011;62004;42.566;23.164;2022-12-10T12:27:25;5.78;;;2.30;;
73697;SDS011;62004;42.566;23.164;2022-12-10T12:35:41;4.95;;;1.70;;
73697;SDS011;62004;42.566;23.164;2022-12-10T12:43:44;5.78;;;1.25;;
73697;SDS011;62004;42.566;23.164;2022-12-10T12:46:21;9.02;;;1.90;;
73697;SDS011;62004;42.566;23.164;2022-12-10T12:48:54;5.72;;;2.83;;
73697;SDS011;62004;42.566;23.164;2022-12-10T12:51:23;5.60;;;2.47;;
73697;SDS011;62004;42.566;23.164;2022-12-10T12:53:50;3.63;;;1.50;;
73697;SDS011;62004;42.566;23.164;2022-12-10T12:59:09;7.47;;;1.95;;
73697;SDS011;62004;42.566;23.164;2022-12-10T13:01:53;4.28;;;1.58;;
73697;SDS011;62004;42.566;23.164;2022-12-10T13:04:23;2.85;;;2.13;;
73697;SDS011;62004;42.566;23.164;2022-12-10T13:09:38;5.70;;;1.70;;
73697;SDS011;62004;42.566;23.164;2022-12-10T13:17:31;7.78;;;2.08;;
73697;SDS011;62004;42.566;23.164;2022-12-10T13:22:59;3.78;;;1.40;;
73697;SDS011;62004;42.566;23.164;2022-12-10T13:28:17;8.20;;;1.80;;
73697;SDS011;62004;42.566;23.164;2022-12-10T13:30:45;4.18;;;1.60;;
73697;SDS011;62004;42.566;23.164;2022-12-10T13:33:50;3.58;;;1.20;;
73697;SDS011;62004;42.566;23.164;2022-12-10T13:36:26;3.25;;;1.77;;
73697;SDS011;62004;42.566;23.164;2022-12-10T13:41:27;6.68;;;1.67;;
73697;SDS011;62004;42.566;23.164;2022-12-10T13:49:52;3.10;;;1.40;;
73697;SDS011;62004;42.566;23.164;2022-12-10T13:52:26;4.88;;;1.35;;
73697;SDS011;62004;42.566;23.164;2022-12-10T13:55:46;4.60;;;1.52;;
73697;SDS011;62004;42.566;23.164;2022-12-10T13:58:17;5.35;;;1.33;;
73697;SDS011;62004;42.566;23.164;2022-12-10T14:06:24;2.88;;;1.40;;
73697;SDS011;62004;42.566;23.164;2022-12-10T14:08:58;3.30;;;1.40;;
73697;SDS011;62004;42.566;23.164;2022-12-10T14:11:37;1.98;;;1.10;;
73697;SDS011;62004;42.566;23.164;2022-12-10T14:14:13;8.55;;;3.08;;
73697;SDS011;62004;42.566;23.164;2022-12-10T14:16:42;8.48;;;2.35;;
73697;SDS011;62004;42.566;23.164;2022-12-10T14:19:11;4.78;;;1.42;;
73697;SDS011;62004;42.566;23.164;2022-12-10T14:21:39;4.25;;;2.20;;
73697;SDS011;62004;42.566;23.164;2022-12-10T14:24:06;3.22;;;1.95;;
73697;SDS011;62004;42.566;23.164;2022-12-10T14:26:55;7.78;;;2.50;;
73697;SDS011;62004;42.566;23.164;2022-12-10T14:29:22;3.90;;;1.80;;
73697;SDS011;62004;42.566;23.164;2022-12-10T14:31:48;7.25;;;3.00;;
73697;SDS011;62004;42.566;23.164;2022-12-10T14:34:16;8.35;;;2.20;;
73697;SDS011;62004;42.566;23.164;2022-12-10T14:36:47;7.38;;;2.60;;
73697;SDS011;62004;42.566;23.164;2022-12-10T14:39:21;4.15;;;1.65;;
73697;SDS011;62004;42.566;23.164;2022-12-10T14:41:51;3.15;;;2.20;;
73697;SDS011;62004;42.566;23.164;2022-12-10T14:44:18;8.25;;;2.85;;
73697;SDS011;62004;42.566;23.164;2022-12-10T14:46:46;4.70;;;2.28;;
73697;SDS011;62004;42.566;23.164;2022-12-10T14:49:17;3.83;;;2.33;;
73697;SDS011;62004;42.566;23.164;2022-12-10T14:51:45;4.00;;;2.05;;
73697;SDS011;62004;42.566;23.164;2022-12-10T14:54:30;4.15;;;2.80;;
73697;SDS011;62004;42.566;23.164;2022-12-10T14:56:59;6.05;;;2.90;;
73697;SDS011;62004;42.566;23.164;2022-12-10T14:59:36;5.85;;;3.05;;
73697;SDS011;62004;42.566;23.164;2022-12-10T15:04:57;7.13;;;2.70;;
73697;SDS011;62004;42.566;23.164;2022-12-10T15:07:24;4.43;;;2.80;;
73697;SDS011;62004;42.566;23.164;2022-12-10T15:09:51;4.55;;;2.85;;
73697;SDS011;62004;42.566;23.164;2022-12-10T15:12:20;8.43;;;3.10;;
73697;SDS011;62004;42.566;23.164;2022-12-10T15:14:54;7.32;;;3.08;;
73697;SDS011;62004;42.566;23.164;2022-12-10T15:17:36;7.28;;;2.63;;
73697;SDS011;62004;42.566;23.164;2022-12-10T15:20:19;8.40;;;3.38;;
73697;SDS011;62004;42.566;23.164;2022-12-10T15:22:47;5.63;;;2.88;;
73697;SDS011;62004;42.566;23.164;2022-12-10T15:25:14;7.43;;;3.42;;
73697;SDS011;62004;42.566;23.164;2022-12-10T15:27:52;10.32;;;4.55;;
73697;SDS011;62004;42.566;23.164;2022-12-10T15:30:38;7.10;;;3.28;;
73697;SDS011;62004;42.566;23.164;2022-12-10T15:33:12;6.00;;;2.78;;
73697;SDS011;62004;42.566;23.164;2022-12-10T15:36:01;9.32;;;3.30;;
73697;SDS011;62004;42.566;23.164;2022-12-10T15:38:27;7.55;;;2.90;;
73697;SDS011;62004;42.566;23.164;2022-12-10T15:43:58;8.90;;;3.10;;
73697;SDS011;62004;42.566;23.164;2022-12-10T15:46:26;7.55;;;3.58;;
73697;SDS011;62004;42.566;23.164;2022-12-10T15:48:52;11.27;;;3.85;;
73697;SDS011;62004;42.566;23.164;2022-12-10T15:51:18;9.60;;;3.90;;
73697;SDS011;62004;42.566;23.164;2022-12-10T15:53:43;8.02;;;4.07;;
73697;SDS011;62004;42.566;23.164;2022-12-10T15:56:08;6.70;;;3.92;;
73697;SDS011;62004;42.566;23.164;2022-12-10T15:58:34;8.63;;;3.50;;
73697;SDS011;62004;42.566;23.164;2022-12-10T16:00:59;6.88;;;3.83;;
73697;SDS011;62004;42.566;23.164;2022-12-10T16:03:25;7.43;;;3.30;;
73697;SDS011;62004;42.566;23.164;2022-12-10T16:05:52;9.02;;;3.75;;
73697;SDS011;62004;42.566;23.164;2022-12-10T16:10:43;6.38;;;3.88;;
73697;SDS011;62004;42.566;23.164;2022-12-10T16:13:14;8.73;;;4.65;;
73697;SDS011;62004;42.566;23.164;2022-12-10T16:16:04;12.45;;;4.95;;
73697;SDS011;62004;42.566;23.164;2022-12-10T16:18:30;6.55;;;4.20;;
73697;SDS011;62004;42.566;23.164;2022-12-10T16:20:56;7.47;;;4.32;;
73697;SDS011;62004;42.566;23.164;2022-12-10T16:23:21;8.55;;;4.25;;
73697;SDS011;62004;42.566;23.164;2022-12-10T16:25:47;9.10;;;5.18;;
73697;SDS011;62004;42.566;23.164;2022-12-10T16:28:13;5.70;;;4.03;;
73697;SDS011;62004;42.566;23.164;2022-12-10T16:30:50;8.50;;;5.05;;
73697;SDS011;62004;42.566;23.164;2022-12-10T16:33:20;9.43;;;5.32;;
73697;SDS011;62004;42.566;23.164;2022-12-10T16:35:48;7.68;;;4.78;;
73697;SDS011;62004;42.566;23.164;2022-12-10T16:38:14;6.35;;;3.53;;
73697;SDS011;62004;42.566;23.164;2022-12-10T16:40:40;6.07;;;4.18;;
73697;SDS011;62004;42.566;23.164;2022-12-10T16:43:17;7.55;;;3.92;;
73697;SDS011;62004;42.566;23.164;2022-12-10T16:45:43;6.38;;;3.60;;
73697;SDS011;62004;42.566;23.164;2022-12-10T16:48:09;8.43;;;4.18;;
73697;SDS011;62004;42.566;23.164;2022-12-10T16:50:35;11.00;;;3.88;;
73697;SDS011;62004;42.566;23.164;2022-12-10T16:53:06;6.63;;;3.22;;